createdAt,value
2018-03-28T00:00:45.586Z,0.00
2018-03-28T00:01:45.575Z,0.00
2018-03-28T00:02:45.557Z,0.00
2018-03-28T00:03:45.551Z,0.00
2018-03-28T00:04:45.534Z,0.00
2018-03-28T00:05:45.517Z,0.00
2018-03-28T00:06:45.505Z,0.00
2018-03-28T00:07:45.489Z,0.00
2018-03-28T00:08:45.489Z,0.00
2018-03-28T00:09:45.466Z,0.00
2018-03-28T00:10:45.450Z,0.00
2018-03-28T00:11:45.432Z,0.00
2018-03-28T00:12:45.420Z,0.00
2018-03-28T00:13:45.402Z,0.00
2018-03-28T00:14:45.394Z,0.00
2018-03-28T00:15:45.378Z,0.00
2018-03-28T00:16:45.362Z,0.00
2018-03-28T00:17:45.349Z,0.00
2018-03-28T00:18:45.333Z,0.00
2018-03-28T00:19:45.317Z,0.00
2018-03-28T00:20:45.303Z,0.00
2018-03-28T00:21:45.302Z,0.00
2018-03-28T00:22:45.280Z,0.00
2018-03-28T00:23:45.263Z,0.00
2018-03-28T00:24:45.249Z,0.00
2018-03-28T00:25:45.236Z,0.00
2018-03-28T00:26:45.220Z,0.00
2018-03-28T00:27:45.209Z,0.00
2018-03-28T00:28:45.196Z,0.00
2018-03-28T00:29:45.178Z,0.00
2018-03-28T00:30:45.168Z,0.00
2018-03-28T00:31:45.146Z,0.00
2018-03-28T00:32:45.140Z,0.00
2018-03-28T00:33:45.127Z,0.00
2018-03-28T00:34:45.108Z,0.00
2018-03-28T00:35:45.091Z,0.00
2018-03-28T00:36:45.082Z,0.00
2018-03-28T00:37:45.059Z,0.00
2018-03-28T00:38:45.049Z,0.00
2018-03-28T00:39:45.036Z,0.00
2018-03-28T00:40:45.026Z,0.00
2018-03-28T00:41:45.011Z,0.00
2018-03-28T00:42:44.994Z,0.00
2018-03-28T00:43:44.983Z,0.00
2018-03-28T00:44:44.964Z,0.00
2018-03-28T00:45:44.949Z,0.00
2018-03-28T00:46:44.938Z,0.00
2018-03-28T00:47:44.925Z,0.00
2018-03-28T00:48:44.911Z,0.00
2018-03-28T00:49:44.894Z,0.00
2018-03-28T00:50:44.884Z,0.00
2018-03-28T00:51:44.864Z,0.00
2018-03-28T00:52:44.858Z,0.00
2018-03-28T00:53:44.833Z,0.00
2018-03-28T00:54:44.819Z,0.00
2018-03-28T00:55:44.813Z,0.00
2018-03-28T00:56:44.794Z,0.00
2018-03-28T00:57:44.777Z,0.00
2018-03-28T00:58:44.765Z,0.00
2018-03-28T00:59:44.750Z,0.00
2018-03-28T01:00:44.740Z,0.00
2018-03-28T01:01:44.721Z,0.00
2018-03-28T01:02:44.705Z,0.00
2018-03-28T01:03:44.693Z,0.00
2018-03-28T01:04:44.681Z,0.00
2018-03-28T01:05:44.662Z,0.00
2018-03-28T01:06:44.648Z,0.00
2018-03-28T01:07:44.636Z,0.00
2018-03-28T01:08:44.622Z,0.00
2018-03-28T01:09:44.602Z,0.00
2018-03-28T01:10:44.589Z,0.00
2018-03-28T01:11:44.577Z,0.00
2018-03-28T01:12:44.556Z,0.00
2018-03-28T01:13:44.547Z,0.00
2018-03-28T01:14:44.531Z,0.00
2018-03-28T01:15:44.517Z,0.00
2018-03-28T01:16:44.505Z,0.00
2018-03-28T01:17:44.487Z,0.00
2018-03-28T01:18:44.473Z,0.00
2018-03-28T01:19:44.458Z,0.00
2018-03-28T01:20:44.439Z,0.00
2018-03-28T01:21:44.430Z,0.00
2018-03-28T01:22:44.418Z,0.00
2018-03-28T01:23:44.405Z,0.00
2018-03-28T01:24:44.386Z,0.00
2018-03-28T01:25:44.372Z,0.00
2018-03-28T01:26:44.360Z,0.00
2018-03-28T01:27:44.347Z,0.00
2018-03-28T01:28:44.334Z,0.00
2018-03-28T01:29:44.320Z,0.00
2018-03-28T01:30:44.303Z,0.00
2018-03-28T01:31:44.289Z,0.00
2018-03-28T01:32:44.273Z,0.00
2018-03-28T01:33:44.258Z,0.00
2018-03-28T01:34:44.246Z,0.00
2018-03-28T01:35:44.231Z,0.00
2018-03-28T01:36:44.216Z,0.00
2018-03-28T01:37:44.201Z,0.00
2018-03-28T01:38:44.185Z,0.00
2018-03-28T01:39:44.171Z,0.00
2018-03-28T01:40:44.153Z,0.00
2018-03-28T01:41:44.145Z,0.00
2018-03-28T01:42:44.127Z,0.00
2018-03-28T01:43:44.109Z,0.00
2018-03-28T01:44:44.097Z,0.00
2018-03-28T01:45:44.084Z,0.00
2018-03-28T01:46:44.068Z,0.00
2018-03-28T01:47:44.054Z,0.00
2018-03-28T01:48:44.047Z,0.00
2018-03-28T01:49:44.028Z,0.00
2018-03-28T01:50:44.014Z,0.00
2018-03-28T01:51:44.000Z,0.00
2018-03-28T01:52:43.984Z,0.00
2018-03-28T01:53:43.971Z,0.00
2018-03-28T01:54:43.955Z,0.00
2018-03-28T01:55:43.943Z,0.00
2018-03-28T01:56:43.929Z,0.00
2018-03-28T01:57:43.918Z,0.00
2018-03-28T01:58:43.898Z,0.00
2018-03-28T01:59:43.893Z,0.00
2018-03-28T02:00:43.869Z,0.00
2018-03-28T02:01:43.856Z,0.00
2018-03-28T02:02:43.845Z,0.00
2018-03-28T02:03:43.824Z,0.00
2018-03-28T02:04:43.812Z,0.00
2018-03-28T02:05:43.800Z,0.00
2018-03-28T02:06:43.787Z,0.00
2018-03-28T02:07:43.774Z,0.00
2018-03-28T02:08:43.755Z,0.00
2018-03-28T02:09:43.746Z,0.00
2018-03-28T02:10:43.726Z,0.00
2018-03-28T02:11:43.716Z,0.00
2018-03-28T02:12:43.701Z,0.00
2018-03-28T02:13:43.688Z,0.00
2018-03-28T02:14:43.667Z,0.00
2018-03-28T02:15:43.656Z,0.00
2018-03-28T02:16:43.640Z,0.00
2018-03-28T02:17:43.627Z,0.00
2018-03-28T02:18:43.613Z,0.00
2018-03-28T02:19:43.602Z,0.00
2018-03-28T02:20:43.590Z,0.00
2018-03-28T02:21:43.566Z,0.00
2018-03-28T02:22:43.553Z,0.00
2018-03-28T02:23:43.537Z,0.00
2018-03-28T02:24:43.526Z,0.00
2018-03-28T02:25:43.510Z,0.00
2018-03-28T02:26:43.492Z,0.00
2018-03-28T02:27:43.480Z,0.00
2018-03-28T02:28:43.468Z,0.00
2018-03-28T02:29:43.454Z,0.00
2018-03-28T02:30:43.439Z,0.00
2018-03-28T02:31:43.430Z,0.00
2018-03-28T02:32:43.409Z,0.00
2018-03-28T02:33:43.393Z,0.00
2018-03-28T02:34:43.379Z,0.00
2018-03-28T02:35:43.364Z,0.00
2018-03-28T02:36:43.349Z,0.00
2018-03-28T02:37:43.338Z,0.00
2018-03-28T02:38:43.327Z,0.00
2018-03-28T02:39:43.310Z,0.00
2018-03-28T02:40:43.293Z,0.00
2018-03-28T02:41:43.289Z,0.00
2018-03-28T02:42:43.267Z,0.00
2018-03-28T02:43:43.252Z,0.00
2018-03-28T02:44:43.238Z,0.00
2018-03-28T02:45:43.225Z,0.00
2018-03-28T02:46:43.208Z,0.00
2018-03-28T02:47:43.196Z,0.00
2018-03-28T02:48:43.182Z,0.00
2018-03-28T02:49:43.166Z,0.00
2018-03-28T02:50:43.151Z,0.00
2018-03-28T02:51:43.137Z,0.00
2018-03-28T02:52:43.119Z,0.00
2018-03-28T02:53:43.117Z,0.00
2018-03-28T02:54:43.091Z,0.00
2018-03-28T02:55:43.079Z,0.00
2018-03-28T02:56:43.065Z,0.00
2018-03-28T02:57:43.046Z,0.00
2018-03-28T02:58:43.036Z,0.00
2018-03-28T02:59:43.018Z,0.00
2018-03-28T03:00:43.007Z,0.00
2018-03-28T03:01:42.989Z,0.00
2018-03-28T03:02:42.981Z,0.00
2018-03-28T03:03:42.957Z,0.00
2018-03-28T03:04:42.940Z,0.00
2018-03-28T03:05:42.933Z,0.00
2018-03-28T03:06:42.930Z,0.00
2018-03-28T03:07:42.901Z,0.00
2018-03-28T03:08:42.889Z,0.00
2018-03-28T03:09:42.871Z,0.00
2018-03-28T03:10:42.857Z,0.00
2018-03-28T03:11:42.843Z,0.00
2018-03-28T03:12:42.829Z,0.00
2018-03-28T03:13:42.845Z,0.00
2018-03-28T03:14:42.801Z,0.00
2018-03-28T03:15:42.782Z,0.00
2018-03-28T03:16:42.777Z,0.00
2018-03-28T03:17:42.754Z,0.00
2018-03-28T03:18:42.737Z,0.00
2018-03-28T03:19:42.734Z,0.00
2018-03-28T03:20:42.718Z,0.00
2018-03-28T03:21:42.695Z,0.00
2018-03-28T03:22:42.684Z,0.00
2018-03-28T03:23:42.667Z,0.00
2018-03-28T03:24:42.654Z,0.00
2018-03-28T03:25:42.636Z,0.00
2018-03-28T03:26:42.628Z,0.00
2018-03-28T03:27:42.608Z,0.00
2018-03-28T03:28:42.591Z,0.00
2018-03-28T03:29:42.582Z,0.00
2018-03-28T03:30:42.571Z,0.00
2018-03-28T03:31:42.549Z,0.00
2018-03-28T03:32:42.535Z,0.00
2018-03-28T03:33:42.521Z,0.00
2018-03-28T03:34:42.507Z,0.00
2018-03-28T03:35:42.492Z,0.00
2018-03-28T03:36:42.483Z,0.00
2018-03-28T03:37:42.466Z,0.00
2018-03-28T03:38:42.450Z,0.00
2018-03-28T03:39:42.431Z,0.00
2018-03-28T03:40:42.419Z,0.00
2018-03-28T03:41:42.406Z,0.00
2018-03-28T03:42:42.394Z,0.00
2018-03-28T03:43:42.379Z,0.00
2018-03-28T03:44:42.360Z,0.00
2018-03-28T03:45:42.346Z,0.00
2018-03-28T03:46:42.332Z,0.00
2018-03-28T03:47:42.322Z,0.00
2018-03-28T03:48:42.302Z,0.00
2018-03-28T03:49:42.288Z,0.00
2018-03-28T03:50:42.274Z,0.00
2018-03-28T03:51:42.260Z,0.00
2018-03-28T03:52:42.243Z,0.00
2018-03-28T03:53:42.234Z,0.00
2018-03-28T03:54:42.220Z,0.00
2018-03-28T03:55:42.198Z,0.00
2018-03-28T03:56:42.194Z,0.00
2018-03-28T03:57:42.174Z,0.00
2018-03-28T03:58:42.153Z,0.00
2018-03-28T03:59:42.142Z,0.00
2018-03-28T04:00:42.133Z,0.00
2018-03-28T04:01:42.113Z,0.00
2018-03-28T04:02:42.100Z,0.00
2018-03-28T04:03:42.085Z,0.00
2018-03-28T04:04:42.068Z,0.00
2018-03-28T04:05:42.063Z,0.00
2018-03-28T04:06:42.042Z,0.00
2018-03-28T04:07:42.026Z,0.00
2018-03-28T04:08:42.013Z,0.00
2018-03-28T04:09:42.002Z,0.00
2018-03-28T04:10:41.983Z,0.00
2018-03-28T04:11:41.972Z,0.00
2018-03-28T04:12:41.955Z,0.00
2018-03-28T04:13:41.939Z,0.00
2018-03-28T04:14:41.924Z,0.00
2018-03-28T04:15:41.909Z,0.00
2018-03-28T04:16:41.897Z,0.00
2018-03-28T04:17:41.878Z,0.00
2018-03-28T04:18:41.864Z,0.00
2018-03-28T04:19:41.848Z,0.00
2018-03-28T04:20:41.832Z,0.00
2018-03-28T04:21:41.820Z,0.00
2018-03-28T04:22:41.807Z,0.00
2018-03-28T04:23:41.790Z,0.00
2018-03-28T04:24:41.775Z,0.00
2018-03-28T04:25:41.761Z,0.00
2018-03-28T04:26:41.751Z,0.00
2018-03-28T04:27:41.731Z,0.00
2018-03-28T04:28:41.721Z,0.00
2018-03-28T04:29:41.703Z,0.00
2018-03-28T04:30:41.689Z,0.00
2018-03-28T04:31:41.673Z,0.00
2018-03-28T04:32:41.659Z,0.00
2018-03-28T04:33:41.644Z,0.00
2018-03-28T04:34:41.630Z,0.00
2018-03-28T04:35:41.619Z,0.00
2018-03-28T04:36:41.610Z,0.00
2018-03-28T04:37:41.584Z,0.00
2018-03-28T04:38:41.570Z,0.00
2018-03-28T04:39:41.558Z,0.00
2018-03-28T04:40:41.537Z,0.00
2018-03-28T04:41:41.527Z,0.00
2018-03-28T04:42:41.515Z,0.00
2018-03-28T04:43:41.549Z,0.00
2018-03-28T04:44:41.479Z,0.00
2018-03-28T04:45:41.472Z,0.00
2018-03-28T04:46:41.452Z,0.00
2018-03-28T04:47:41.438Z,0.00
2018-03-28T04:48:41.424Z,0.00
2018-03-28T04:49:41.411Z,0.00
2018-03-28T04:50:41.399Z,0.00
2018-03-28T04:51:41.379Z,4.00
2018-03-28T04:52:41.375Z,4.00
2018-03-28T04:53:41.357Z,0.00
2018-03-28T04:54:41.339Z,4.00
2018-03-28T04:55:41.319Z,4.00
2018-03-28T04:56:41.307Z,0.00
2018-03-28T04:57:41.293Z,4.00
2018-03-28T04:58:41.280Z,4.00
2018-03-28T04:59:41.266Z,8.00
2018-03-28T05:00:41.248Z,4.00
2018-03-28T05:01:41.231Z,8.00
2018-03-28T05:02:41.220Z,8.00
2018-03-28T05:03:41.204Z,12.00
2018-03-28T05:04:41.193Z,8.00
2018-03-28T05:05:41.174Z,12.00
2018-03-28T05:06:41.159Z,12.00
2018-03-28T05:07:41.147Z,12.00
2018-03-28T05:08:41.131Z,16.00
2018-03-28T05:09:41.119Z,16.00
2018-03-28T05:10:41.102Z,20.00
2018-03-28T05:11:41.088Z,24.00
2018-03-28T05:12:41.075Z,24.00
2018-03-28T05:13:41.058Z,24.00
2018-03-28T05:14:41.046Z,28.00
2018-03-28T05:15:41.104Z,32.00
2018-03-28T05:16:41.016Z,36.00
2018-03-28T05:17:41.000Z,40.00
2018-03-28T05:18:40.987Z,44.00
2018-03-28T05:19:40.972Z,44.00
2018-03-28T05:20:40.959Z,48.00
2018-03-28T05:21:40.946Z,52.00
2018-03-28T05:22:40.940Z,60.00
2018-03-28T05:23:40.910Z,64.00
2018-03-28T05:24:40.902Z,72.00
2018-03-28T05:25:40.889Z,80.00
2018-03-28T05:26:40.866Z,92.00
2018-03-28T05:27:40.856Z,104.00
2018-03-28T05:28:40.848Z,116.00
2018-03-28T05:29:40.828Z,132.00
2018-03-28T05:30:40.814Z,140.00
2018-03-28T05:31:40.799Z,152.00
2018-03-28T05:32:40.782Z,156.00
2018-03-28T05:33:40.767Z,168.00
2018-03-28T05:34:40.757Z,180.00
2018-03-28T05:35:40.749Z,184.00
2018-03-28T05:36:40.734Z,192.00
2018-03-28T05:37:40.756Z,200.00
2018-03-28T05:38:40.693Z,196.00
2018-03-28T05:39:40.680Z,192.00
2018-03-28T05:40:40.670Z,188.00
2018-03-28T05:41:40.647Z,188.00
2018-03-28T05:42:40.634Z,184.00
2018-03-28T05:43:40.625Z,184.00
2018-03-28T05:44:40.609Z,180.00
2018-03-28T05:45:40.600Z,180.00
2018-03-28T05:46:40.578Z,184.00
2018-03-28T05:47:40.570Z,188.00
2018-03-28T05:48:40.553Z,196.00
2018-03-28T05:49:40.565Z,204.00
2018-03-28T05:50:40.520Z,208.00
2018-03-28T05:51:40.508Z,220.00
2018-03-28T05:52:40.496Z,240.00
2018-03-28T05:53:40.478Z,252.00
2018-03-28T05:54:40.463Z,268.00
2018-03-28T05:55:40.453Z,272.00
2018-03-28T05:56:40.433Z,276.00
2018-03-28T05:57:40.421Z,268.00
2018-03-28T05:58:40.406Z,268.00
2018-03-28T05:59:40.397Z,272.00
2018-03-28T06:00:40.379Z,276.00
2018-03-28T06:01:40.364Z,284.00
2018-03-28T06:02:40.345Z,288.00
2018-03-28T06:03:40.329Z,284.00
2018-03-28T06:04:40.324Z,284.00
2018-03-28T06:05:40.304Z,280.00
2018-03-28T06:06:40.293Z,280.00
2018-03-28T06:07:40.278Z,280.00
2018-03-28T06:08:40.261Z,284.00
2018-03-28T06:09:40.253Z,280.00
2018-03-28T06:10:40.230Z,288.00
2018-03-28T06:11:40.221Z,288.00
2018-03-28T06:12:40.203Z,292.00
2018-03-28T06:13:40.192Z,300.00
2018-03-28T06:14:40.178Z,320.00
2018-03-28T06:15:40.165Z,348.00
2018-03-28T06:16:40.150Z,384.00
2018-03-28T06:17:40.127Z,420.00
2018-03-28T06:18:40.126Z,460.00
2018-03-28T06:19:40.100Z,480.00
2018-03-28T06:20:40.094Z,492.00
2018-03-28T06:21:40.079Z,492.00
2018-03-28T06:22:40.069Z,496.00
2018-03-28T06:23:40.047Z,516.00
2018-03-28T06:24:40.037Z,548.00
2018-03-28T06:25:40.020Z,584.00
2018-03-28T06:26:40.004Z,624.00
2018-03-28T06:27:39.990Z,656.00
2018-03-28T06:28:39.974Z,668.00
2018-03-28T06:29:39.965Z,668.00
2018-03-28T06:30:39.989Z,680.00
2018-03-28T06:31:39.934Z,700.00
2018-03-28T06:32:39.918Z,724.00
2018-03-28T06:33:39.904Z,736.00
2018-03-28T06:34:39.895Z,744.00
2018-03-28T06:35:39.877Z,780.00
2018-03-28T06:36:39.863Z,816.00
2018-03-28T06:37:39.854Z,856.00
2018-03-28T06:38:39.831Z,884.00
2018-03-28T06:39:39.818Z,912.00
2018-03-28T06:40:39.807Z,928.00
2018-03-28T06:41:39.790Z,940.00
2018-03-28T06:42:39.780Z,932.00
2018-03-28T06:43:39.762Z,924.00
2018-03-28T06:44:39.750Z,928.00
2018-03-28T06:45:39.736Z,920.00
2018-03-28T06:46:39.729Z,900.00
2018-03-28T06:47:39.706Z,872.00
2018-03-28T06:48:39.694Z,852.00
2018-03-28T06:49:39.678Z,836.00
2018-03-28T06:50:39.667Z,836.00
2018-03-28T06:51:39.651Z,844.00
2018-03-28T06:52:39.637Z,852.00
2018-03-28T06:53:39.622Z,868.00
2018-03-28T06:54:39.613Z,888.00
2018-03-28T06:55:39.594Z,916.00
2018-03-28T06:56:39.575Z,952.00
2018-03-28T06:57:39.575Z,968.00
2018-03-28T06:58:39.557Z,952.00
2018-03-28T06:59:39.541Z,928.00
2018-03-28T07:00:39.530Z,924.00
2018-03-28T07:01:39.518Z,924.00
2018-03-28T07:02:39.501Z,900.00
2018-03-28T07:03:39.491Z,868.00
2018-03-28T07:04:39.480Z,860.00
2018-03-28T07:05:39.458Z,892.00
2018-03-28T07:06:39.444Z,936.00
2018-03-28T07:07:39.430Z,964.00
2018-03-28T07:08:39.417Z,984.00
2018-03-28T07:09:39.406Z,1020.00
2018-03-28T07:10:39.391Z,1024.00
2018-03-28T07:11:39.381Z,1008.00
2018-03-28T07:12:39.368Z,996.00
2018-03-28T07:13:39.349Z,1008.00
2018-03-28T07:14:39.333Z,1028.00
2018-03-28T07:15:39.325Z,1032.00
2018-03-28T07:16:39.312Z,1020.00
2018-03-28T07:17:39.293Z,1000.00
2018-03-28T07:18:39.281Z,992.00
2018-03-28T07:19:39.269Z,980.00
2018-03-28T07:20:39.314Z,1008.00
2018-03-28T07:21:39.243Z,1060.00
2018-03-28T07:22:39.225Z,1140.00
2018-03-28T07:23:39.210Z,1204.00
2018-03-28T07:24:39.198Z,1228.00
2018-03-28T07:25:39.179Z,1200.00
2018-03-28T07:26:39.173Z,1168.00
2018-03-28T07:27:39.157Z,1152.00
2018-03-28T07:28:39.143Z,1168.00
2018-03-28T07:29:39.122Z,1232.00
2018-03-28T07:30:39.116Z,1316.00
2018-03-28T07:31:39.101Z,1380.00
2018-03-28T07:32:39.094Z,1412.00
2018-03-28T07:33:39.078Z,1404.00
2018-03-28T07:34:39.063Z,1384.00
2018-03-28T07:35:39.043Z,1392.00
2018-03-28T07:36:39.031Z,1452.00
2018-03-28T07:37:39.022Z,1552.00
2018-03-28T07:38:39.010Z,1680.00
2018-03-28T07:39:38.996Z,1796.00
2018-03-28T07:40:38.978Z,1860.00
2018-03-28T07:41:38.967Z,1856.00
2018-03-28T07:42:38.951Z,1812.00
2018-03-28T07:43:38.939Z,1796.00
2018-03-28T07:44:38.927Z,1800.00
2018-03-28T07:45:38.908Z,1760.00
2018-03-28T07:46:38.897Z,1688.00
2018-03-28T07:47:38.886Z,1684.00
2018-03-28T07:48:38.874Z,1724.00
2018-03-28T07:49:38.856Z,1760.00
2018-03-28T07:50:38.847Z,1772.00
2018-03-28T07:51:38.868Z,1716.00
2018-03-28T07:52:38.814Z,1644.00
2018-03-28T07:53:38.801Z,1696.00
2018-03-28T07:54:38.786Z,1808.00
2018-03-28T07:55:38.813Z,1852.00
2018-03-28T07:56:38.763Z,1856.00
2018-03-28T07:57:38.747Z,1832.00
2018-03-28T07:58:38.737Z,1812.00
2018-03-28T07:59:38.723Z,1816.00
2018-03-28T08:00:38.711Z,1828.00
2018-03-28T08:01:38.695Z,1948.00
2018-03-28T08:02:38.680Z,2036.00
2018-03-28T08:03:38.666Z,2116.00
2018-03-28T08:04:38.656Z,2204.00
2018-03-28T08:05:38.646Z,2236.00
2018-03-28T08:06:38.636Z,2264.00
2018-03-28T08:07:38.612Z,2388.00
2018-03-28T08:08:38.600Z,2592.00
2018-03-28T08:09:38.593Z,2716.00
2018-03-28T08:10:38.581Z,2580.00
2018-03-28T08:11:38.565Z,2456.00
2018-03-28T08:12:38.551Z,2500.00
2018-03-28T08:13:38.540Z,2544.00
2018-03-28T08:14:38.527Z,2576.00
2018-03-28T08:15:38.511Z,2568.00
2018-03-28T08:16:38.499Z,2516.00
2018-03-28T08:17:38.483Z,2608.00
2018-03-28T08:18:38.468Z,2752.00
2018-03-28T08:19:38.458Z,2484.00
2018-03-28T08:20:38.442Z,2400.00
2018-03-28T08:21:38.430Z,2540.00
2018-03-28T08:22:38.418Z,2844.00
2018-03-28T08:23:38.408Z,3376.00
2018-03-28T08:24:38.390Z,3456.00
2018-03-28T08:25:38.389Z,3416.00
2018-03-28T08:26:38.366Z,3104.00
2018-03-28T08:27:38.356Z,2892.00
2018-03-28T08:28:38.343Z,2648.00
2018-03-28T08:29:38.328Z,2544.00
2018-03-28T08:30:38.317Z,2404.00
2018-03-28T08:31:38.303Z,2380.00
2018-03-28T08:32:38.295Z,2532.00
2018-03-28T08:33:38.279Z,2704.00
2018-03-28T08:34:38.264Z,3028.00
2018-03-28T08:35:38.260Z,2728.00
2018-03-28T08:36:38.239Z,2580.00
2018-03-28T08:37:38.223Z,2600.00
2018-03-28T08:38:38.215Z,2712.00
2018-03-28T08:39:38.202Z,3076.00
2018-03-28T08:40:38.194Z,3368.00
2018-03-28T08:41:38.176Z,3056.00
2018-03-28T08:42:38.169Z,3060.00
2018-03-28T08:43:38.153Z,3084.00
2018-03-28T08:44:38.145Z,2980.00
2018-03-28T08:45:38.130Z,2932.00
2018-03-28T08:46:38.114Z,3028.00
2018-03-28T08:47:38.105Z,3268.00
2018-03-28T08:48:38.091Z,3400.00
2018-03-28T08:49:38.082Z,3492.00
2018-03-28T08:50:38.066Z,3624.00
2018-03-28T08:51:38.054Z,3800.00
2018-03-28T08:52:38.046Z,5284.00
2018-03-28T08:53:38.032Z,3656.00
2018-03-28T08:54:38.018Z,3592.00
2018-03-28T08:55:38.008Z,3648.00
2018-03-28T08:56:37.996Z,3756.00
2018-03-28T08:57:37.980Z,3460.00
2018-03-28T08:58:37.971Z,3496.00
2018-03-28T08:59:37.961Z,3632.00
2018-03-28T09:00:37.947Z,3656.00
2018-03-28T09:01:37.934Z,3488.00
2018-03-28T09:02:37.922Z,3336.00
2018-03-28T09:03:37.912Z,3316.00
2018-03-28T09:04:37.900Z,3176.00
2018-03-28T09:05:37.888Z,3188.00
2018-03-28T09:06:37.884Z,3220.00
2018-03-28T09:07:37.861Z,3256.00
2018-03-28T09:08:37.855Z,3316.00
2018-03-28T09:09:37.837Z,3424.00
2018-03-28T09:10:37.829Z,3636.00
2018-03-28T09:11:37.854Z,3620.00
2018-03-28T09:12:37.799Z,3720.00
2018-03-28T09:13:37.792Z,3752.00
2018-03-28T09:14:37.784Z,3816.00
2018-03-28T09:15:37.766Z,3928.00
2018-03-28T09:16:37.758Z,3836.00
2018-03-28T09:17:37.741Z,3660.00
2018-03-28T09:18:37.738Z,3568.00
2018-03-28T09:19:37.718Z,3536.00
2018-03-28T09:20:37.716Z,3496.00
2018-03-28T09:21:37.697Z,3476.00
2018-03-28T09:22:37.686Z,3460.00
2018-03-28T09:23:37.673Z,3444.00
2018-03-28T09:24:37.667Z,3376.00
2018-03-28T09:25:37.653Z,3324.00
2018-03-28T09:26:37.637Z,3368.00
2018-03-28T09:27:37.627Z,3556.00
2018-03-28T09:28:37.620Z,3632.00
2018-03-28T09:29:37.607Z,3828.00
2018-03-28T09:30:37.599Z,4052.00
2018-03-28T09:31:37.582Z,3904.00
2018-03-28T09:32:37.573Z,4212.00
2018-03-28T09:33:37.561Z,4432.00
2018-03-28T09:34:37.549Z,4760.00
2018-03-28T09:35:37.537Z,4808.00
2018-03-28T09:36:37.524Z,4756.00
2018-03-28T09:37:37.518Z,4504.00
2018-03-28T09:38:37.506Z,4504.00
2018-03-28T09:39:37.494Z,4884.00
2018-03-28T09:40:37.487Z,4616.00
2018-03-28T09:41:37.471Z,4792.00
2018-03-28T09:42:37.518Z,4620.00
2018-03-28T09:43:37.442Z,4432.00
2018-03-28T09:44:37.436Z,4464.00
2018-03-28T09:45:37.427Z,4408.00
2018-03-28T09:46:37.413Z,4444.00
2018-03-28T09:47:37.405Z,6376.00
2018-03-28T09:48:37.399Z,6660.00
2018-03-28T09:49:37.383Z,4308.00
2018-03-28T09:50:37.373Z,4240.00
2018-03-28T09:51:37.355Z,4032.00
2018-03-28T09:52:37.347Z,4032.00
2018-03-28T09:53:37.338Z,4248.00
2018-03-28T09:54:37.334Z,4820.00
2018-03-28T09:55:37.318Z,8468.00
2018-03-28T09:56:37.306Z,9004.00
2018-03-28T09:57:37.294Z,9660.00
2018-03-28T09:58:37.301Z,9068.00
2018-03-28T09:59:37.281Z,5788.00
2018-03-28T10:00:37.268Z,5696.00
2018-03-28T10:01:37.251Z,4064.00
2018-03-28T10:02:37.239Z,3964.00
2018-03-28T10:03:37.230Z,4068.00
2018-03-28T10:04:37.217Z,4764.00
2018-03-28T10:05:37.208Z,9028.00
2018-03-28T10:06:37.200Z,8992.00
2018-03-28T10:07:37.193Z,6764.00
2018-03-28T10:08:37.174Z,7480.00
2018-03-28T10:09:37.170Z,8516.00
2018-03-28T10:10:37.157Z,8112.00
2018-03-28T10:11:37.145Z,7860.00
2018-03-28T10:12:37.137Z,5272.00
2018-03-28T10:13:37.120Z,7628.00
2018-03-28T10:14:37.113Z,7540.00
2018-03-28T10:15:37.109Z,6560.00
2018-03-28T10:16:37.096Z,7104.00
2018-03-28T10:17:37.083Z,7040.00
2018-03-28T10:18:37.077Z,6920.00
2018-03-28T10:19:37.063Z,6732.00
2018-03-28T10:20:37.052Z,6708.00
2018-03-28T10:21:37.043Z,6500.00
2018-03-28T10:22:37.034Z,6108.00
2018-03-28T10:23:37.022Z,5980.00
2018-03-28T10:24:37.015Z,5800.00
2018-03-28T10:25:37.007Z,6212.00
2018-03-28T10:26:36.995Z,6436.00
2018-03-28T10:27:36.987Z,6380.00
2018-03-28T10:28:36.977Z,6364.00
2018-03-28T10:29:36.964Z,6484.00
2018-03-28T10:30:36.953Z,6324.00
2018-03-28T10:31:36.944Z,6528.00
2018-03-28T10:32:36.934Z,6588.00
2018-03-28T10:33:36.922Z,6744.00
2018-03-28T10:34:36.920Z,6800.00
2018-03-28T10:35:36.910Z,6972.00
2018-03-28T10:36:36.902Z,6972.00
2018-03-28T10:37:36.887Z,7180.00
2018-03-28T10:38:36.882Z,7328.00
2018-03-28T10:39:36.870Z,7220.00
2018-03-28T10:40:36.864Z,7192.00
2018-03-28T10:41:36.850Z,6872.00
2018-03-28T10:42:36.843Z,6652.00
2018-03-28T10:43:36.835Z,6512.00
2018-03-28T10:44:36.823Z,6348.00
2018-03-28T10:45:36.817Z,6232.00
2018-03-28T10:46:36.805Z,6296.00
2018-03-28T10:47:36.800Z,6496.00
2018-03-28T10:48:36.804Z,6584.00
2018-03-28T10:49:36.779Z,6624.00
2018-03-28T10:50:36.774Z,6540.00
2018-03-28T10:51:36.759Z,6548.00
2018-03-28T10:52:36.758Z,6424.00
2018-03-28T10:53:36.746Z,6216.00
2018-03-28T10:54:36.730Z,6092.00
2018-03-28T10:55:36.728Z,6148.00
2018-03-28T10:56:36.722Z,6264.00
2018-03-28T10:57:36.707Z,6440.00
2018-03-28T10:58:36.697Z,6668.00
2018-03-28T10:59:36.691Z,6752.00
2018-03-28T11:00:36.683Z,6632.00
2018-03-28T11:01:36.673Z,6652.00
2018-03-28T11:02:36.665Z,6736.00
2018-03-28T11:03:36.656Z,6608.00
2018-03-28T11:04:36.649Z,6368.00
2018-03-28T11:05:36.639Z,5400.00
2018-03-28T11:06:36.629Z,5212.00
2018-03-28T11:07:36.624Z,5648.00
2018-03-28T11:08:36.616Z,6424.00
2018-03-28T11:09:36.604Z,7188.00
2018-03-28T11:10:36.598Z,7068.00
2018-03-28T11:11:36.588Z,6784.00
2018-03-28T11:12:36.580Z,6372.00
2018-03-28T11:13:36.571Z,6648.00
2018-03-28T11:14:36.558Z,7564.00
2018-03-28T11:15:36.555Z,7784.00
2018-03-28T11:16:36.543Z,7840.00
2018-03-28T11:17:36.531Z,7780.00
2018-03-28T11:18:36.524Z,7700.00
2018-03-28T11:19:36.521Z,7824.00
2018-03-28T11:20:36.513Z,8072.00
2018-03-28T11:21:36.504Z,8268.00
2018-03-28T11:22:36.493Z,8204.00
2018-03-28T11:23:36.488Z,8516.00
2018-03-28T11:24:36.476Z,8464.00
2018-03-28T11:25:36.471Z,8588.00
2018-03-28T11:26:36.463Z,8772.00
2018-03-28T11:27:36.458Z,8836.00
2018-03-28T11:28:36.448Z,8664.00
2018-03-28T11:29:36.436Z,8196.00
2018-03-28T11:30:36.427Z,8372.00
2018-03-28T11:31:36.424Z,8484.00
2018-03-28T11:32:36.457Z,8600.00
2018-03-28T11:33:36.407Z,8928.00
2018-03-28T11:34:36.397Z,8892.00
2018-03-28T11:35:36.393Z,8656.00
2018-03-28T11:36:36.386Z,8292.00
2018-03-28T11:37:36.378Z,7476.00
2018-03-28T11:38:36.369Z,6776.00
2018-03-28T11:39:36.363Z,7660.00
2018-03-28T11:40:36.352Z,7408.00
2018-03-28T11:41:36.342Z,7148.00
2018-03-28T11:42:36.338Z,7332.00
2018-03-28T11:43:36.327Z,7424.00
2018-03-28T11:44:36.323Z,7512.00
2018-03-28T11:45:36.318Z,7512.00
2018-03-28T11:46:36.310Z,7508.00
2018-03-28T11:47:36.344Z,7620.00
2018-03-28T11:48:36.305Z,7764.00
2018-03-28T11:49:36.285Z,7764.00
2018-03-28T11:50:36.275Z,7756.00
2018-03-28T11:51:36.274Z,7944.00
2018-03-28T11:52:36.266Z,8332.00
2018-03-28T11:53:36.257Z,8568.00
2018-03-28T11:54:36.254Z,8364.00
2018-03-28T11:55:36.243Z,8272.00
2018-03-28T11:56:36.235Z,8232.00
2018-03-28T11:57:36.223Z,8116.00
2018-03-28T11:58:36.215Z,7644.00
2018-03-28T11:59:36.213Z,6996.00
2018-03-28T12:00:36.203Z,7032.00
2018-03-28T12:01:36.197Z,7404.00
2018-03-28T12:02:36.193Z,7688.00
2018-03-28T12:03:36.184Z,7704.00
2018-03-28T12:04:36.202Z,7796.00
2018-03-28T12:05:36.174Z,7768.00
2018-03-28T12:06:36.167Z,7564.00
2018-03-28T12:07:36.160Z,7796.00
2018-03-28T12:08:36.159Z,7604.00
2018-03-28T12:09:36.139Z,7444.00
2018-03-28T12:10:36.133Z,7208.00
2018-03-28T12:11:36.125Z,7676.00
2018-03-28T12:12:36.119Z,7684.00
2018-03-28T12:13:36.112Z,7928.00
2018-03-28T12:14:36.108Z,7632.00
2018-03-28T12:15:36.108Z,7264.00
2018-03-28T12:16:36.120Z,7240.00
2018-03-28T12:17:36.083Z,6460.00
2018-03-28T12:18:36.080Z,4752.00
2018-03-28T12:19:36.078Z,4052.00
2018-03-28T12:20:36.065Z,4948.00
2018-03-28T12:21:36.063Z,5080.00
2018-03-28T12:22:36.055Z,5324.00
2018-03-28T12:23:36.045Z,5124.00
2018-03-28T12:24:36.043Z,5100.00
2018-03-28T12:25:36.032Z,5000.00
2018-03-28T12:26:36.024Z,5312.00
2018-03-28T12:27:36.020Z,5656.00
2018-03-28T12:28:36.018Z,5816.00
2018-03-28T12:29:36.004Z,5996.00
2018-03-28T12:30:35.998Z,6408.00
2018-03-28T12:31:35.990Z,6732.00
2018-03-28T12:32:35.988Z,7132.00
2018-03-28T12:33:35.977Z,6824.00
2018-03-28T12:34:35.969Z,6468.00
2018-03-28T12:35:35.970Z,6500.00
2018-03-28T12:36:35.959Z,6424.00
2018-03-28T12:37:35.951Z,6084.00
2018-03-28T12:38:35.949Z,6332.00